Terminal Aerodrome Forecast
Issued by NWS Wilmington, OH

Current Version | Previous Version | Graphics & Text | Print | Product List | Glossary Off
Versions: 1 2 3 4 5 6 7 8 9 10 11 12 13 14 15 16

000
FTUS41 KILN 071500 AAA
TAFILN
TAF AMD
KILN 071511Z 0715/0812 20006KT P6SM BKN018 OVC050
      TEMPO 0715/0716 SCT008 BKN015
     FM071600 22012KT P6SM VCSH SCT018 BKN035
     FM071700 22012G20KT P6SM VCTS BKN035CB
      TEMPO 0720/0724 5SM -TSRA BR OVC025CB
     FM080000 23011KT 5SM -SHRA BR VCTS OVC025CB
     FM080900 29010KT 5SM -SHRA BR OVC016=

USA.gov is the U.S. government's official web portal to all federal, state and local government web resources and services.